createdAt,value
2023-01-28T00:00:01.361Z,11.68
2023-01-28T00:02:30.987Z,12.20
2023-01-28T00:04:59.381Z,11.63
2023-01-28T00:07:29.260Z,13.35
2023-01-28T00:09:57.593Z,10.18
2023-01-28T00:12:26.000Z,10.50
2023-01-28T00:14:54.554Z,11.38
2023-01-28T00:17:23.019Z,10.35
2023-01-28T00:19:51.319Z,11.38
2023-01-28T00:22:19.606Z,13.18
2023-01-28T00:24:49.539Z,10.05
2023-01-28T00:27:18.194Z,9.68
2023-01-28T00:29:46.640Z,7.80
2023-01-28T00:32:15.369Z,10.13
2023-01-28T00:34:43.985Z,10.02
2023-01-28T00:37:12.299Z,10.15
2023-01-28T00:39:40.559Z,10.05
2023-01-28T00:42:10.296Z,9.40
2023-01-28T00:44:38.677Z,8.88
2023-01-28T00:47:07.216Z,8.02
2023-01-28T00:49:36.031Z,10.82
2023-01-28T00:52:04.610Z,10.00
2023-01-28T00:54:32.639Z,10.15
2023-01-28T00:57:01.051Z,9.30
2023-01-28T00:59:30.334Z,9.90
2023-01-28T01:02:12.374Z,10.68
2023-01-28T01:04:55.051Z,8.95
2023-01-28T01:07:32.218Z,8.27
2023-01-28T01:10:02.044Z,9.73
2023-01-28T01:12:30.610Z,9.63
2023-01-28T01:15:02.521Z,10.32
2023-01-28T01:17:32.422Z,8.93
2023-01-28T01:20:00.886Z,9.07
2023-01-28T01:22:29.359Z,8.88
2023-01-28T01:24:59.828Z,7.43
2023-01-28T01:27:28.370Z,6.70
2023-01-28T01:29:56.386Z,11.40
2023-01-28T01:32:26.487Z,9.20
2023-01-28T01:34:54.879Z,9.75
2023-01-28T01:37:23.296Z,7.82
2023-01-28T01:39:51.902Z,8.98
2023-01-28T01:42:20.269Z,8.68
2023-01-28T01:44:57.984Z,8.52
2023-01-28T01:47:33.004Z,10.88
2023-01-28T01:50:05.579Z,10.43
2023-01-28T01:52:36.110Z,7.75
2023-01-28T01:55:10.451Z,8.55
2023-01-28T01:57:41.076Z,7.95
2023-01-28T02:00:10.882Z,7.90
2023-01-28T02:02:43.098Z,8.35
2023-01-28T02:05:13.202Z,8.10
2023-01-28T02:07:45.661Z,8.95
2023-01-28T02:10:16.008Z,8.20
2023-01-28T02:12:46.745Z,8.45
2023-01-28T02:15:19.632Z,7.47
2023-01-28T02:17:52.420Z,10.63
2023-01-28T02:20:24.744Z,9.80
2023-01-28T02:23:19.413Z,9.07
2023-01-28T02:26:30.206Z,11.38
2023-01-28T02:29:07.729Z,9.70
2023-01-28T02:31:41.084Z,8.82
2023-01-28T02:34:20.859Z,9.68
2023-01-28T02:36:53.814Z,7.72
2023-01-28T02:39:26.324Z,7.10
2023-01-28T02:42:01.007Z,7.95
2023-01-28T02:44:30.563Z,7.35
2023-01-28T02:47:16.694Z,7.95
2023-01-28T02:49:51.885Z,7.80
2023-01-28T02:52:45.545Z,7.00
2023-01-28T02:55:20.947Z,10.35
2023-01-28T02:58:01.148Z,5.88
2023-01-28T03:00:40.611Z,6.45
2023-01-28T03:03:17.912Z,7.00
2023-01-28T03:06:03.762Z,7.25
2023-01-28T03:08:54.495Z,8.68
2023-01-28T03:11:40.621Z,6.95
2023-01-28T03:14:27.352Z,10.57
2023-01-28T03:17:18.305Z,8.48
2023-01-28T03:20:04.997Z,9.32
2023-01-28T03:22:52.983Z,7.38
2023-01-28T03:25:41.344Z,8.00
2023-01-28T03:28:32.165Z,9.57
2023-01-28T03:31:22.958Z,8.43
2023-01-28T03:34:11.305Z,7.18
2023-01-28T03:36:48.555Z,7.53
2023-01-28T03:39:17.102Z,12.13
2023-01-28T03:42:06.496Z,6.65
2023-01-28T03:44:54.143Z,7.90
2023-01-28T03:47:23.575Z,7.57
2023-01-28T03:49:54.520Z,5.60
2023-01-28T03:52:24.247Z,9.63
2023-01-28T03:54:53.016Z,7.32
2023-01-28T03:57:23.208Z,8.57
2023-01-28T03:59:52.753Z,6.68
2023-01-28T04:02:31.423Z,8.40
2023-01-28T04:05:01.266Z,7.80
2023-01-28T04:07:30.044Z,5.93
2023-01-28T04:09:58.721Z,6.18
2023-01-28T04:12:27.383Z,9.25
2023-01-28T04:14:55.757Z,8.40
2023-01-28T04:17:24.570Z,7.28
2023-01-28T04:19:53.030Z,7.15
2023-01-28T04:22:22.341Z,6.43
2023-01-28T04:24:50.899Z,6.00
2023-01-28T04:27:19.082Z,7.65
2023-01-28T04:29:47.439Z,6.78
2023-01-28T04:32:15.551Z,7.47
2023-01-28T04:34:43.834Z,7.75
2023-01-28T04:37:12.256Z,7.75
2023-01-28T04:39:42.188Z,9.30
2023-01-28T04:42:11.801Z,7.75
2023-01-28T04:44:40.504Z,8.35
2023-01-28T04:47:08.722Z,8.60
2023-01-28T04:49:37.462Z,9.27
2023-01-28T04:52:06.095Z,10.32
2023-01-28T04:54:34.949Z,7.63
2023-01-28T04:57:04.533Z,8.38
2023-01-28T04:59:32.899Z,8.27
2023-01-28T05:02:02.790Z,6.65
2023-01-28T05:04:31.815Z,12.20
2023-01-28T05:07:00.160Z,7.95
2023-01-28T05:09:28.448Z,9.30
2023-01-28T05:11:57.211Z,7.53
2023-01-28T05:14:27.330Z,7.72
2023-01-28T05:16:58.491Z,12.50
2023-01-28T05:19:27.129Z,6.35
2023-01-28T05:21:55.993Z,10.40
2023-01-28T05:24:24.707Z,8.82
2023-01-28T05:26:55.933Z,6.80
2023-01-28T05:29:25.234Z,8.65
2023-01-28T05:31:56.959Z,6.30
2023-01-28T05:34:25.764Z,5.95
2023-01-28T05:36:53.768Z,8.20
2023-01-28T05:39:22.011Z,5.88
2023-01-28T05:41:54.622Z,4.63
2023-01-28T05:44:23.374Z,6.70
2023-01-28T05:46:53.687Z,5.43
2023-01-28T05:49:23.325Z,6.45
2023-01-28T05:51:51.830Z,7.13
2023-01-28T05:54:20.228Z,7.47
2023-01-28T05:56:48.587Z,9.10
2023-01-28T05:59:17.174Z,8.35
2023-01-28T06:01:46.243Z,6.00
2023-01-28T06:04:14.843Z,6.35
2023-01-28T06:06:44.404Z,5.38
2023-01-28T06:09:13.044Z,6.43
2023-01-28T06:11:41.875Z,7.28
2023-01-28T06:14:10.132Z,10.52
2023-01-28T06:16:38.620Z,10.13
2023-01-28T06:19:07.315Z,7.03
2023-01-28T06:21:35.812Z,6.22
2023-01-28T06:24:06.488Z,9.10
2023-01-28T06:26:35.938Z,8.90
2023-01-28T06:29:05.322Z,9.38
2023-01-28T06:31:34.909Z,9.70
2023-01-28T06:34:03.657Z,6.90
2023-01-28T06:36:33.899Z,6.70
2023-01-28T06:39:02.226Z,7.47
2023-01-28T06:41:32.483Z,8.02
2023-01-28T06:44:01.260Z,9.02
2023-01-28T06:46:30.073Z,8.75
2023-01-28T06:48:58.547Z,9.77
2023-01-28T06:51:27.354Z,11.05
2023-01-28T06:53:56.414Z,10.45
2023-01-28T06:56:26.381Z,11.82
2023-01-28T06:58:56.262Z,7.97
2023-01-28T07:01:24.816Z,9.80
2023-01-28T07:03:54.097Z,10.68
2023-01-28T07:06:27.028Z,11.73
2023-01-28T07:11:25.768Z,10.45
2023-01-28T07:13:54.479Z,12.40
2023-01-28T07:16:24.192Z,10.68
2023-01-28T07:18:53.590Z,11.45
2023-01-28T07:21:22.187Z,11.40
2023-01-28T07:23:51.069Z,15.98
2023-01-28T07:26:20.001Z,12.73
2023-01-28T07:28:48.829Z,12.25
2023-01-28T07:31:17.867Z,11.55
2023-01-28T07:33:47.257Z,17.38
2023-01-28T07:36:16.462Z,12.68
2023-01-28T07:38:46.069Z,11.23
2023-01-28T07:41:14.559Z,9.73
2023-01-28T07:43:44.315Z,11.68
2023-01-28T07:46:14.631Z,16.30
2023-01-28T07:48:45.730Z,10.73
2023-01-28T07:51:15.543Z,12.65
2023-01-28T07:53:45.735Z,12.27
2023-01-28T07:56:14.232Z,12.48
2023-01-28T07:58:42.925Z,12.85
2023-01-28T08:01:14.478Z,12.70
2023-01-28T08:03:45.683Z,10.95
2023-01-28T08:06:15.533Z,14.65
2023-01-28T08:08:43.871Z,12.20
2023-01-28T08:11:12.423Z,13.63
2023-01-28T08:13:41.483Z,10.65
2023-01-28T08:16:11.167Z,11.75
2023-01-28T08:18:41.143Z,18.10
2023-01-28T08:21:14.184Z,25.60
2023-01-28T08:26:13.216Z,13.98
2023-01-28T08:28:42.114Z,9.32
2023-01-28T08:31:11.978Z,9.88
2023-01-28T08:33:40.314Z,9.65
2023-01-28T08:36:09.741Z,9.23
2023-01-28T08:38:38.781Z,12.50
2023-01-28T08:41:09.087Z,10.93
2023-01-28T08:43:38.091Z,14.50
2023-01-28T08:46:08.816Z,13.82
2023-01-28T08:48:38.453Z,10.77
2023-01-28T08:51:07.565Z,14.07
2023-01-28T08:53:35.800Z,12.88
2023-01-28T08:56:11.689Z,12.98
2023-01-28T08:58:42.279Z,11.00
2023-01-28T09:01:12.470Z,13.00
2023-01-28T09:03:42.658Z,9.32
2023-01-28T09:06:14.026Z,8.52
2023-01-28T09:08:42.666Z,9.63
2023-01-28T09:11:16.361Z,10.65
2023-01-28T09:13:46.375Z,11.88
2023-01-28T09:16:16.895Z,12.23
2023-01-28T09:18:46.858Z,12.43
2023-01-28T09:21:15.381Z,14.38
2023-01-28T09:23:44.407Z,10.10
2023-01-28T09:26:13.683Z,10.02
2023-01-28T09:28:43.382Z,15.15
2023-01-28T09:31:16.680Z,12.00
2023-01-28T09:33:45.421Z,10.07
2023-01-28T09:36:13.751Z,12.95
2023-01-28T09:38:42.920Z,10.15
2023-01-28T09:41:25.461Z,10.18
2023-01-28T09:44:07.722Z,9.43
2023-01-28T09:46:45.752Z,10.07
2023-01-28T09:49:23.277Z,13.55
2023-01-28T09:51:55.501Z,10.80
2023-01-28T09:54:34.307Z,9.75
2023-01-28T09:57:10.842Z,10.30
2023-01-28T09:59:39.153Z,8.93
2023-01-28T10:02:33.828Z,7.63
2023-01-28T10:05:16.777Z,7.97
2023-01-28T10:07:55.734Z,7.60
2023-01-28T10:10:30.753Z,9.88
2023-01-28T10:13:22.130Z,7.97
2023-01-28T10:16:00.668Z,10.70
2023-01-28T10:18:38.452Z,12.10
2023-01-28T10:21:16.270Z,10.63
2023-01-28T10:23:54.475Z,10.02
2023-01-28T10:26:26.607Z,8.13
2023-01-28T10:29:01.840Z,11.40
2023-01-28T10:31:34.738Z,10.30
2023-01-28T10:34:05.246Z,9.45
2023-01-28T10:36:35.440Z,9.20
2023-01-28T10:39:04.374Z,13.68
2023-01-28T10:41:34.178Z,9.98
2023-01-28T10:44:04.729Z,9.20
2023-01-28T10:46:36.224Z,8.10
2023-01-28T10:49:14.072Z,8.20
2023-01-28T10:51:44.433Z,8.23
2023-01-28T10:54:24.164Z,7.50
2023-01-28T10:57:03.336Z,7.35
2023-01-28T10:59:34.868Z,6.82
2023-01-28T11:02:06.634Z,11.20
2023-01-28T11:04:37.698Z,10.55
2023-01-28T11:07:07.922Z,11.85
2023-01-28T11:09:38.236Z,9.77
2023-01-28T11:12:15.127Z,9.48
2023-01-28T11:14:52.753Z,7.47
2023-01-28T11:17:24.974Z,8.52
2023-01-28T11:19:55.296Z,6.70
2023-01-28T11:22:33.339Z,8.13
2023-01-28T11:25:04.157Z,7.70
2023-01-28T11:27:34.159Z,8.77
2023-01-28T11:30:07.033Z,10.38
2023-01-28T11:32:35.422Z,8.57
2023-01-28T11:35:07.686Z,8.77
2023-01-28T11:37:38.118Z,8.02
2023-01-28T11:40:21.776Z,10.02
2023-01-28T11:42:52.406Z,7.32
2023-01-28T11:45:26.611Z,6.20
2023-01-28T11:48:11.426Z,7.50
2023-01-28T11:50:52.246Z,8.25
2023-01-28T11:53:44.207Z,6.38
2023-01-28T11:56:39.927Z,8.43
2023-01-28T11:59:24.438Z,8.15
2023-01-28T12:02:02.602Z,8.32
2023-01-28T12:04:49.604Z,7.00
2023-01-28T12:07:31.327Z,7.50
2023-01-28T12:10:04.344Z,7.53
2023-01-28T12:15:43.544Z,8.00
2023-01-28T12:18:28.293Z,5.93
2023-01-28T12:21:11.923Z,7.65
2023-01-28T12:24:05.768Z,6.25
2023-01-28T12:26:44.206Z,9.10
2023-01-28T12:29:28.435Z,7.07
2023-01-28T12:32:15.103Z,4.90
2023-01-28T12:35:01.052Z,8.25
2023-01-28T12:37:49.579Z,7.15
2023-01-28T12:40:50.659Z,5.55
2023-01-28T12:43:26.716Z,6.45
2023-01-28T12:45:58.972Z,6.43
2023-01-28T12:48:33.658Z,4.50
2023-01-28T12:51:07.006Z,4.20
2023-01-28T12:53:42.732Z,4.68
2023-01-28T12:56:18.021Z,6.30
2023-01-28T12:58:53.443Z,5.63
2023-01-28T13:01:26.194Z,4.07
2023-01-28T13:04:02.923Z,4.55
2023-01-28T13:06:35.095Z,4.82
2023-01-28T13:09:12.846Z,3.17
2023-01-28T13:11:43.370Z,4.43
2023-01-28T13:14:14.588Z,5.03
2023-01-28T13:16:42.996Z,6.68
2023-01-28T13:19:24.932Z,5.90
2023-01-28T13:21:54.231Z,4.47
2023-01-28T13:24:25.706Z,5.75
2023-01-28T13:26:57.607Z,3.90
2023-01-28T13:29:34.961Z,4.45
2023-01-28T13:32:04.831Z,9.02
2023-01-28T13:34:37.414Z,8.60
2023-01-28T13:37:18.095Z,6.57
2023-01-28T13:39:53.547Z,4.93
2023-01-28T13:42:29.887Z,5.85
2023-01-28T13:45:16.082Z,6.88
2023-01-28T13:47:49.116Z,8.07
2023-01-28T13:50:22.658Z,10.20
2023-01-28T13:52:56.562Z,11.55
2023-01-28T13:55:42.991Z,8.15
2023-01-28T13:58:32.762Z,9.45
2023-01-28T14:01:52.026Z,10.85
2023-01-28T14:04:55.570Z,7.45
2023-01-28T14:07:48.082Z,11.43
2023-01-28T14:10:35.547Z,9.70
2023-01-28T14:13:24.250Z,9.07
2023-01-28T14:16:08.140Z,9.43
2023-01-28T14:18:40.218Z,9.48
2023-01-28T14:21:13.368Z,8.70
2023-01-28T14:23:48.589Z,10.52
2023-01-28T14:26:32.778Z,11.10
2023-01-28T14:29:12.105Z,8.43
2023-01-28T14:31:42.522Z,11.35
2023-01-28T14:34:24.809Z,11.77
2023-01-28T14:36:57.786Z,12.57
2023-01-28T14:41:59.879Z,13.65
2023-01-28T14:44:36.149Z,10.27
2023-01-28T14:47:31.641Z,11.75
2023-01-28T14:50:20.031Z,9.40
2023-01-28T14:53:06.699Z,10.43
2023-01-28T14:55:42.303Z,11.52
2023-01-28T14:58:17.960Z,9.98
2023-01-28T15:00:55.780Z,11.85
2023-01-28T15:03:28.434Z,11.02
2023-01-28T15:06:07.940Z,12.52
2023-01-28T15:08:36.518Z,10.77
2023-01-28T15:11:09.524Z,9.38
2023-01-28T15:16:08.919Z,9.90
2023-01-28T15:18:43.842Z,11.75
2023-01-28T15:21:12.529Z,9.15
2023-01-28T15:23:44.715Z,13.07
2023-01-28T15:26:17.320Z,10.00
2023-01-28T15:28:47.466Z,10.38
2023-01-28T15:31:23.551Z,11.18
2023-01-28T15:34:00.713Z,11.13
2023-01-28T15:36:31.558Z,11.88
2023-01-28T15:39:01.570Z,11.05
2023-01-28T15:41:36.317Z,13.43
2023-01-28T15:44:05.670Z,12.82
2023-01-28T15:46:36.070Z,9.82
2023-01-28T15:49:05.780Z,11.10
2023-01-28T15:51:35.071Z,8.60
2023-01-28T15:54:07.152Z,10.80
2023-01-28T15:56:36.276Z,11.57
2023-01-28T15:59:21.083Z,11.07
2023-01-28T16:01:50.013Z,10.48
2023-01-28T16:04:28.191Z,10.50
2023-01-28T16:06:58.058Z,6.10
2023-01-28T16:09:30.110Z,8.35
2023-01-28T16:12:04.451Z,6.95
2023-01-28T16:14:38.322Z,11.25
2023-01-28T16:17:06.779Z,10.77
2023-01-28T16:19:39.890Z,9.88
2023-01-28T16:22:10.047Z,10.93
2023-01-28T16:24:38.738Z,20.27
2023-01-28T16:27:21.179Z,13.70
2023-01-28T16:29:50.130Z,13.77
2023-01-28T16:32:32.855Z,11.95
2023-01-28T16:35:03.650Z,16.17
2023-01-28T16:37:34.631Z,10.35
2023-01-28T16:40:05.408Z,10.27
2023-01-28T16:42:35.209Z,12.07
2023-01-28T16:45:03.867Z,19.00
2023-01-28T16:47:32.116Z,19.15
2023-01-28T16:50:04.201Z,13.02
2023-01-28T16:52:34.705Z,12.73
2023-01-28T16:55:02.970Z,13.32
2023-01-28T16:57:35.332Z,13.27
2023-01-28T17:00:05.608Z,12.25
2023-01-28T17:02:35.716Z,11.02
2023-01-28T17:05:05.706Z,10.90
2023-01-28T17:07:36.057Z,13.27
2023-01-28T17:10:04.430Z,13.45
2023-01-28T17:12:32.761Z,7.88
2023-01-28T17:15:01.155Z,6.93
2023-01-28T17:17:29.547Z,13.15
2023-01-28T17:19:58.105Z,11.40
2023-01-28T17:22:28.911Z,11.75
2023-01-28T17:24:57.141Z,11.73
2023-01-28T17:27:25.544Z,14.52
2023-01-28T17:29:55.277Z,12.82
2023-01-28T17:32:24.652Z,19.10
2023-01-28T17:34:52.699Z,13.85
2023-01-28T17:37:20.736Z,11.30
2023-01-28T17:39:50.082Z,12.48
2023-01-28T17:42:18.422Z,13.50
2023-01-28T17:44:49.582Z,10.00
2023-01-28T17:47:18.154Z,8.40
2023-01-28T17:49:46.464Z,8.35
2023-01-28T17:52:15.311Z,9.30
2023-01-28T17:54:43.683Z,9.57
2023-01-28T17:57:13.314Z,10.73
2023-01-28T17:59:44.045Z,8.77
2023-01-28T18:02:13.696Z,9.23
2023-01-28T18:04:43.689Z,9.55
2023-01-28T18:07:13.264Z,14.55
2023-01-28T18:09:45.473Z,12.20
2023-01-28T18:12:16.722Z,10.57
2023-01-28T18:14:46.336Z,11.45
2023-01-28T18:17:14.860Z,11.95
2023-01-28T18:19:43.296Z,14.05
2023-01-28T18:22:12.723Z,10.40
2023-01-28T18:24:40.680Z,14.45
2023-01-28T18:27:09.582Z,9.63
2023-01-28T18:29:41.967Z,13.60
2023-01-28T18:32:10.109Z,11.38
2023-01-28T18:34:40.054Z,11.25
2023-01-28T18:37:10.307Z,12.82
2023-01-28T18:39:39.876Z,11.27
2023-01-28T18:42:08.865Z,12.25
2023-01-28T18:44:39.130Z,13.50
2023-01-28T18:47:07.205Z,11.98
2023-01-28T18:49:35.788Z,11.73
2023-01-28T18:52:04.674Z,13.23
2023-01-28T18:54:32.950Z,13.30
2023-01-28T18:57:01.074Z,11.60
2023-01-28T18:59:29.782Z,12.75
2023-01-28T19:01:59.796Z,11.85
2023-01-28T19:04:29.272Z,11.23
2023-01-28T19:06:58.241Z,10.52
2023-01-28T19:09:26.677Z,11.75
2023-01-28T19:11:54.959Z,15.43
2023-01-28T19:14:23.240Z,11.50
2023-01-28T19:16:53.597Z,12.77
2023-01-28T19:19:24.493Z,11.63
2023-01-28T19:21:53.711Z,15.60
2023-01-28T19:24:22.241Z,13.75
2023-01-28T19:26:50.449Z,11.05
2023-01-28T19:29:19.579Z,13.18
2023-01-28T19:31:49.779Z,11.68
2023-01-28T19:34:18.226Z,13.23
2023-01-28T19:36:48.135Z,12.15
2023-01-28T19:39:17.451Z,10.98
2023-01-28T19:41:46.124Z,11.43
2023-01-28T19:44:14.748Z,13.50
2023-01-28T19:46:44.238Z,9.68
2023-01-28T19:49:13.058Z,11.95
2023-01-28T19:51:42.241Z,11.50
2023-01-28T19:54:16.021Z,15.18
2023-01-28T19:56:47.137Z,9.93
2023-01-28T19:59:16.395Z,13.85
2023-01-28T20:01:46.384Z,11.30
2023-01-28T20:04:14.631Z,10.68
2023-01-28T20:06:43.326Z,11.70
2023-01-28T20:09:16.363Z,14.27
2023-01-28T20:14:18.774Z,13.55
2023-01-28T20:16:47.000Z,12.98
2023-01-28T20:19:16.924Z,10.88
2023-01-28T20:21:46.669Z,11.50
2023-01-28T20:24:16.995Z,13.23
2023-01-28T20:26:46.430Z,10.32
2023-01-28T20:29:19.141Z,14.93
2023-01-28T20:32:09.295Z,14.20
2023-01-28T20:37:10.384Z,11.07
2023-01-28T20:39:39.852Z,11.15
2023-01-28T20:42:10.156Z,12.20
2023-01-28T20:44:38.505Z,11.15
2023-01-28T20:47:07.113Z,11.38
2023-01-28T20:49:35.139Z,13.00
2023-01-28T20:52:04.714Z,10.65
2023-01-28T20:54:34.363Z,12.45
2023-01-28T20:57:05.577Z,14.30
2023-01-28T20:59:38.240Z,12.65
2023-01-28T21:02:09.004Z,12.15
2023-01-28T21:04:39.682Z,12.82
2023-01-28T21:07:09.728Z,11.82
2023-01-28T21:09:42.406Z,12.02
2023-01-28T21:12:12.088Z,14.57
2023-01-28T21:14:40.599Z,19.50
2023-01-28T21:17:09.214Z,23.80
2023-01-28T21:19:37.792Z,13.80
2023-01-28T21:22:08.225Z,13.68
2023-01-28T21:24:36.814Z,16.38
2023-01-28T21:27:05.681Z,10.75
2023-01-28T21:29:35.765Z,12.25
2023-01-28T21:32:03.887Z,11.93
2023-01-28T21:34:32.417Z,13.00
2023-01-28T21:37:00.397Z,12.05
2023-01-28T21:39:29.279Z,14.60
2023-01-28T21:41:57.815Z,14.02
2023-01-28T21:44:25.976Z,13.43
2023-01-28T21:46:57.589Z,12.63
2023-01-28T21:49:28.065Z,15.38
2023-01-28T21:51:56.325Z,14.25
2023-01-28T21:54:24.536Z,15.60
2023-01-28T21:56:53.833Z,13.55
2023-01-28T21:59:32.924Z,17.08
2023-01-28T22:02:04.133Z,14.98
2023-01-28T22:04:36.570Z,16.35
2023-01-28T22:07:06.481Z,14.82
2023-01-28T22:09:35.462Z,15.27
2023-01-28T22:12:05.056Z,12.18
2023-01-28T22:14:33.894Z,9.75
2023-01-28T22:17:03.985Z,12.82
2023-01-28T22:19:32.597Z,12.57
2023-01-28T22:22:01.937Z,10.30
2023-01-28T22:24:30.561Z,10.43
2023-01-28T22:27:06.699Z,11.32
2023-01-28T22:29:37.634Z,13.43
2023-01-28T22:32:27.740Z,16.60
2023-01-28T22:34:56.711Z,12.82
2023-01-28T22:37:24.732Z,12.02
2023-01-28T22:39:57.514Z,13.48
2023-01-28T22:42:25.492Z,13.32
2023-01-28T22:44:53.909Z,12.45
2023-01-28T22:47:23.506Z,15.05
2023-01-28T22:49:51.443Z,13.60
2023-01-28T22:52:19.763Z,11.82
2023-01-28T22:54:49.115Z,10.25
2023-01-28T22:57:29.113Z,13.23
2023-01-28T23:00:00.377Z,10.77
2023-01-28T23:02:30.177Z,14.50
2023-01-28T23:04:58.340Z,11.30
2023-01-28T23:07:27.466Z,12.85
2023-01-28T23:09:56.620Z,13.13
2023-01-28T23:12:25.750Z,16.13
2023-01-28T23:15:11.442Z,14.63
2023-01-28T23:17:58.999Z,11.93
2023-01-28T23:20:45.122Z,14.45
2023-01-28T23:23:36.297Z,17.45
2023-01-28T23:26:12.191Z,24.27
2023-01-28T23:28:42.073Z,20.00
2023-01-28T23:31:11.741Z,24.65
2023-01-28T23:33:41.423Z,22.90
2023-01-28T23:36:10.220Z,32.28
2023-01-28T23:38:40.643Z,40.35
2023-01-28T23:41:09.229Z,39.00
2023-01-28T23:43:37.597Z,50.95
2023-01-28T23:46:07.702Z,50.42
2023-01-28T23:48:36.032Z,46.42
2023-01-28T23:51:09.516Z,42.47
2023-01-28T23:53:37.909Z,45.13
2023-01-28T23:56:10.612Z,44.00
2023-01-28T23:58:43.742Z,30.85
